Beddau, United Kingdom
Current Conditions -  °F | °C
As of 10:20 PM on Sunday 21 Dec 2014 (Local Time) from EGFF Reporting Station
Overcast Overcast  
Wind Chill: 52°   Ceiling: 500
Heat Index: 52°   Visibility: 6mi
Dew Point: 52°   Wind: 16mph
Humidity: 100%   Direction: 260°W
Pressure: 30.18"   Gusts: NA
Location:  51.55°N, 3.36°W
Report Text: EGFF 212220Z AUTO 26014KT 9999 BKN005 OVC011 11/11 Q1022
Loading
Personal Weather Stations






























Interactive Weather Map New forecast layout! Learn more

10-Day Weather Forecast

Advertisements
Track Severe Weather on mobile